Time;durP1;ratioP1;P1;durP2;ratioP2;P2;SDS_P1;SDS_P2;PMS_P1;PMS_P2;Temp;Humidity;BMP_temperature;BMP_pressure;BME280_temperature;BME280_humidity;BME280_pressure;Samples;Min_cycle;Max_cycle;Signal;HPM_P1;HPM_P2
2021/07/13 00:01:09;;;;;;;8.77;7.57;;;22.70;74.30;;;;;;20949767;28;20032;-20
2021/07/13 00:11:10;;;;;;;7.40;6.57;;;22.70;74.30;;;;;;20947185;28;20037;-20
2021/07/13 00:21:10;;;;;;;7.63;6.88;;;22.60;74.40;;;;;;20941289;28;20033;-20
2021/07/13 00:31:11;;;;;;;8.50;7.70;;;22.70;74.60;;;;;;20957519;28;20029;-20
2021/07/13 00:41:12;;;;;;;9.13;8.15;;;22.70;74.50;;;;;;20941449;28;20461;-20
2021/07/13 00:51:13;;;;;;;7.50;6.88;;;22.70;74.40;;;;;;20970977;28;20047;-20
2021/07/13 01:01:14;;;;;;;8.43;7.73;;;22.70;74.20;;;;;;20948627;28;20033;-20
2021/07/13 01:11:45;;;;;;;8.10;7.32;;;22.70;74.20;;;;;;20946786;28;20062;-20
2021/07/13 01:21:56;;;;;;;8.02;7.22;;;22.70;74.20;;;;;;20880212;28;20165;-20
2021/07/13 01:31:59;;;;;;;8.20;7.50;;;22.70;74.20;;;;;;20933837;28;20059;-21
2021/07/13 01:42:05;;;;;;;7.30;6.68;;;22.70;74.00;;;;;;20935277;28;20037;-19
2021/07/13 01:52:08;;;;;;;8.40;7.65;;;22.70;74.00;;;;;;20933789;28;20040;-19
2021/07/13 02:02:09;;;;;;;9.45;7.85;;;22.60;73.70;;;;;;20883715;28;20115;-19
2021/07/13 02:12:10;;;;;;;8.10;7.30;;;22.60;73.50;;;;;;20955769;28;20037;-19
2021/07/13 02:22:11;;;;;;;8.00;7.20;;;22.60;73.40;;;;;;20948350;28;20495;-20
2021/07/13 02:32:18;;;;;;;8.13;7.20;;;22.60;73.30;;;;;;20941461;28;20033;-20
2021/07/13 02:42:19;;;;;;;6.70;6.10;;;22.60;73.30;;;;;;20932651;28;20024;-19
2021/07/13 02:52:27;;;;;;;7.68;6.95;;;22.60;73.20;;;;;;20956271;28;20111;-19
2021/07/13 03:02:30;;;;;;;7.70;7.00;;;22.60;73.20;;;;;;20937550;28;20436;-19
2021/07/13 03:12:31;;;;;;;8.25;7.45;;;22.60;73.10;;;;;;20887509;28;20081;-20
2021/07/13 03:22:36;;;;;;;8.23;7.47;;;22.60;73.00;;;;;;20965354;28;20483;-20
2021/07/13 03:32:37;;;;;;;6.85;6.20;;;22.60;73.00;;;;;;20968747;28;20037;-21
2021/07/13 03:42:38;;;;;;;8.50;6.88;;;22.60;73.00;;;;;;20950397;28;20111;-21
2021/07/13 03:52:39;;;;;;;8.32;6.97;;;22.60;73.00;;;;;;20980921;28;20025;-19
2021/07/13 04:02:43;;;;;;;9.70;7.35;;;22.60;72.90;;;;;;20900873;28;20513;-22
2021/07/13 04:12:43;;;;;;;9.05;7.68;;;22.50;72.80;;;;;;20947184;28;20047;-20
2021/07/13 04:22:45;;;;;;;7.05;6.25;;;22.60;72.80;;;;;;20935687;28;20045;-20
2021/07/13 04:32:45;;;;;;;8.45;7.60;;;22.50;72.70;;;;;;20929451;28;20029;-20
2021/07/13 04:42:46;;;;;;;12.18;7.90;;;22.50;72.60;;;;;;20906188;28;20033;-20
2021/07/13 04:52:46;;;;;;;9.80;8.32;;;22.60;73.10;;;;;;20911261;28;20032;-20
2021/07/13 05:02:47;;;;;;;17.17;8.70;;;22.50;72.90;;;;;;20927668;28;20053;-20
2021/07/13 05:12:47;;;;;;;28.45;16.33;;;22.60;73.00;;;;;;20922664;28;20646;-20
2021/07/13 05:22:49;;;;;;;31.83;18.02;;;22.60;73.10;;;;;;20901249;28;20028;-20
2021/07/13 05:32:50;;;;;;;23.63;15.05;;;22.60;73.30;;;;;;20914283;28;20103;-20
2021/07/13 05:42:52;;;;;;;23.33;16.58;;;22.60;73.30;;;;;;20922579;28;20515;-20
2021/07/13 05:52:53;;;;;;;37.63;15.43;;;22.60;73.50;;;;;;20882601;28;20111;-20
2021/07/13 06:02:53;;;;;;;31.15;13.88;;;22.60;74.00;;;;;;20931099;28;20075;-19
2021/07/13 06:12:54;;;;;;;30.10;13.95;;;22.60;74.20;;;;;;20929954;28;20407;-20
2021/07/13 06:22:54;;;;;;;16.13;13.02;;;22.60;74.00;;;;;;20913160;28;20255;-21
2021/07/13 06:32:55;;;;;;;19.93;12.00;;;22.60;73.90;;;;;;20911471;28;20532;-21
2021/07/13 06:42:55;;;;;;;16.38;11.50;;;22.60;73.90;;;;;;20932790;28;20032;-19
2021/07/13 06:52:56;;;;;;;19.73;12.23;;;22.60;74.00;;;;;;20947413;28;20395;-21
2021/07/13 07:02:57;;;;;;;46.28;14.32;;;22.70;74.20;;;;;;20955847;28;20039;-20
2021/07/13 07:12:57;;;;;;;41.65;12.30;;;22.70;74.40;;;;;;20962165;28;20032;-20
2021/07/13 07:22:59;;;;;;;21.95;10.70;;;22.70;74.30;;;;;;20888482;28;20036;-21
2021/07/13 07:33:00;;;;;;;26.05;11.07;;;22.80;73.90;;;;;;20909149;28;20718;-21
2021/07/13 07:43:01;;;;;;;22.70;9.82;;;22.80;73.70;;;;;;20933198;28;20465;-20
2021/07/13 07:53:01;;;;;;;13.50;10.07;;;22.80;73.50;;;;;;20907113;28;20036;-20
2021/07/13 08:03:02;;;;;;;19.77;9.75;;;22.90;73.40;;;;;;20923769;28;20025;-21
2021/07/13 08:13:04;;;;;;;27.40;10.70;;;22.90;73.30;;;;;;20928734;28;20135;-21
2021/07/13 08:23:05;;;;;;;23.50;9.43;;;22.90;73.30;;;;;;20925679;28;20032;-21
2021/07/13 08:33:05;;;;;;;37.07;10.90;;;22.90;73.00;;;;;;20917730;28;20043;-19
2021/07/13 08:43:06;;;;;;;28.23;9.23;;;23.00;73.00;;;;;;20925086;28;20438;-20
2021/07/13 08:53:06;;;;;;;25.20;8.40;;;23.00;73.10;;;;;;20933415;28;20491;-20
2021/07/13 09:03:21;;;;;;;19.92;7.85;;;23.00;73.60;;;;;;20929395;28;20032;-20
2021/07/13 09:13:25;;;;;;;15.55;6.93;;;23.10;73.60;;;;;;20931737;28;20032;-20
2021/07/13 09:23:25;;;;;;;14.48;6.63;;;23.10;73.60;;;;;;20924411;28;20036;-21
2021/07/13 09:33:28;;;;;;;9.68;6.30;;;23.10;73.30;;;;;;20892860;28;20024;-21
2021/07/13 09:43:52;;;;;;;10.82;7.47;;;23.20;73.20;;;;;;20934369;28;20032;-21
2021/07/13 09:53:52;;;;;;;8.00;7.15;;;23.20;73.00;;;;;;20912591;28;20026;-20
2021/07/13 10:03:53;;;;;;;12.43;7.03;;;23.20;72.90;;;;;;20839815;28;20428;-19
2021/07/13 10:13:54;;;;;;;12.02;7.05;;;23.10;72.90;;;;;;20904749;28;20061;-20
2021/07/13 10:23:56;;;;;;;8.30;6.60;;;23.20;72.80;;;;;;20941543;28;20057;-20
2021/07/13 10:33:58;;;;;;;9.43;7.13;;;23.20;72.60;;;;;;20918977;28;20049;-20
2021/07/13 10:43:58;;;;;;;15.13;6.97;;;23.20;72.50;;;;;;20913291;28;20121;-20
2021/07/13 10:54:04;;;;;;;11.43;7.43;;;23.20;72.50;;;;;;20921560;28;20454;-21
2021/07/13 11:04:06;;;;;;;10.48;6.55;;;23.30;72.30;;;;;;20941138;28;20403;-22
2021/07/13 11:14:08;;;;;;;10.10;7.40;;;23.30;72.30;;;;;;20947130;28;20028;-19
2021/07/13 11:24:10;;;;;;;8.13;6.45;;;23.30;72.00;;;;;;20909257;28;20036;-19
2021/07/13 11:34:17;;;;;;;8.13;5.93;;;23.30;72.20;;;;;;20894728;28;20060;-21
2021/07/13 11:44:18;;;;;;;8.85;6.75;;;23.40;72.20;;;;;;20939525;28;20033;-19
2021/07/13 11:54:22;;;;;;;6.93;6.05;;;23.40;72.10;;;;;;20917406;28;20038;-21
2021/07/13 12:04:24;;;;;;;11.68;6.63;;;23.30;71.90;;;;;;20922896;28;20032;-20
2021/07/13 12:14:26;;;;;;;7.90;6.00;;;23.30;71.80;;;;;;20987942;22;20127;-19
2021/07/13 12:24:36;;;;;;;7.55;6.40;;;23.30;71.80;;;;;;21034402;28;20028;-19
2021/07/13 12:34:42;;;;;;;7.65;5.95;;;23.30;71.80;;;;;;21064995;28;20103;-19
2021/07/13 12:44:44;;;;;;;6.65;5.95;;;23.30;71.80;;;;;;21061704;28;20120;-19
2021/07/13 12:54:58;;;;;;;12.35;6.60;;;23.30;71.80;;;;;;21058559;28;20299;-19
2021/07/13 13:04:59;;;;;;;6.60;6.00;;;23.30;71.80;;;;;;21071993;28;20034;-19
2021/07/13 13:14:59;;;;;;;6.80;6.18;;;23.30;71.80;;;;;;21071395;28;20060;-19
2021/07/13 13:25:00;;;;;;;8.10;6.03;;;23.30;71.80;;;;;;21043857;28;20026;-19
2021/07/13 13:35:00;;;;;;;6.43;5.78;;;23.30;71.80;;;;;;21070748;28;20043;-19
2021/07/13 13:45:01;;;;;;;7.03;6.32;;;23.30;71.70;;;;;;21070088;28;20366;-19
2021/07/13 13:55:04;;;;;;;8.63;5.57;;;23.30;71.60;;;;;;21069045;28;20062;-19
2021/07/13 14:05:06;;;;;;;8.38;6.18;;;23.30;71.60;;;;;;21039193;28;20060;-20
2021/07/13 14:15:08;;;;;;;6.82;6.13;;;23.30;71.60;;;;;;21006528;28;20105;-19
2021/07/13 14:25:11;;;;;;;7.05;6.30;;;23.30;71.60;;;;;;21030272;28;20405;-19
2021/07/13 14:35:12;;;;;;;7.20;6.25;;;23.30;71.60;;;;;;21043628;28;20024;-20
2021/07/13 14:45:13;;;;;;;11.63;5.78;;;23.30;71.60;;;;;;21026436;28;20028;-20
2021/07/13 14:55:13;;;;;;;8.73;6.07;;;23.30;71.60;;;;;;21050771;28;20051;-20
2021/07/13 15:05:14;;;;;;;9.45;6.05;;;23.30;71.60;;;;;;21066524;28;20123;-20
2021/07/13 15:15:14;;;;;;;10.80;6.33;;;23.20;71.60;;;;;;21074498;28;20059;-20
2021/07/13 15:25:15;;;;;;;7.20;6.50;;;23.20;71.60;;;;;;21053417;28;20035;-20
2021/07/13 15:35:16;;;;;;;10.70;6.45;;;23.20;71.60;;;;;;21079042;28;20108;-19
2021/07/13 15:45:17;;;;;;;6.60;5.75;;;23.20;71.60;;;;;;21077302;28;20028;-20
2021/07/13 15:55:17;;;;;;;7.10;6.03;;;23.20;71.60;;;;;;21075763;28;20104;-20
2021/07/13 16:05:18;;;;;;;13.45;6.05;;;23.30;71.30;;;;;;21075049;28;20165;-19
2021/07/13 16:15:19;;;;;;;15.68;6.47;;;23.30;71.80;;;;;;21075690;28;20036;-19
2021/07/13 16:25:20;;;;;;;17.98;7.07;;;23.30;71.70;;;;;;21073628;28;20039;-19
2021/07/13 16:35:21;;;;;;;15.85;6.78;;;23.30;72.00;;;;;;21046442;28;20439;-20
2021/07/13 16:45:22;;;;;;;14.00;7.47;;;23.40;72.20;;;;;;21074346;28;20047;-19
2021/07/13 16:55:26;;;;;;;21.17;6.32;;;23.40;72.30;;;;;;21034062;28;20107;-20
2021/07/13 17:05:27;;;;;;;30.95;8.10;;;23.40;72.30;;;;;;20998413;28;20036;-20
2021/07/13 17:15:30;;;;;;;20.63;5.40;;;23.50;72.20;;;;;;20995515;28;20044;-20
2021/07/13 17:25:33;;;;;;;26.42;7.32;;;23.50;72.10;;;;;;20994366;28;20035;-20
2021/07/13 17:35:34;;;;;;;14.52;6.18;;;23.50;71.90;;;;;;20990819;28;20036;-20
2021/07/13 17:45:35;;;;;;;28.23;7.28;;;23.50;71.80;;;;;;20981395;28;20039;-20
2021/07/13 17:55:36;;;;;;;11.60;6.18;;;23.40;71.80;;;;;;20976420;28;20100;-19
2021/07/13 18:05:36;;;;;;;17.08;6.15;;;23.40;71.70;;;;;;20987537;28;20351;-19
2021/07/13 18:15:37;;;;;;;8.48;5.75;;;23.40;71.70;;;;;;20982645;28;20028;-19
2021/07/13 18:25:38;;;;;;;15.93;6.57;;;23.40;71.70;;;;;;20980567;28;20491;-20
2021/07/13 18:35:39;;;;;;;14.80;5.50;;;23.30;71.70;;;;;;21024026;28;20060;-20
2021/07/13 18:45:40;;;;;;;17.33;5.97;;;23.30;71.80;;;;;;21002783;28;20048;-20
2021/07/13 18:55:42;;;;;;;16.40;6.35;;;23.30;71.80;;;;;;20995411;28;20481;-20
2021/07/13 19:05:45;;;;;;;8.80;6.22;;;23.30;71.80;;;;;;21016217;28;20028;-20
2021/07/13 19:15:45;;;;;;;8.05;5.95;;;23.20;71.80;;;;;;21014986;28;20032;-20
2021/07/13 19:25:47;;;;;;;11.43;5.50;;;23.30;71.80;;;;;;20998106;28;20036;-20
2021/07/13 19:45:50;;;;;;;8.10;5.00;;;23.20;71.80;;;;;;21052172;28;20794;-19
2021/07/13 19:55:50;;;;;;;14.85;5.75;;;23.20;71.90;;;;;;21050209;28;20020;-19
2021/07/13 20:05:51;;;;;;;23.38;7.45;;;23.20;72.60;;;;;;21069203;28;20051;-19
2021/07/13 20:15:51;;;;;;;12.07;9.52;;;23.20;74.40;;;;;;21073634;28;20063;-19
2021/07/13 20:25:52;;;;;;;15.90;10.85;;;23.30;74.40;;;;;;21070470;28;20085;-19
2021/07/13 20:35:53;;;;;;;13.25;11.93;;;23.30;74.70;;;;;;21073296;28;20363;-19
2021/07/13 20:45:53;;;;;;;13.65;11.68;;;23.30;75.60;;;;;;21067092;28;20028;-19
2021/07/13 20:55:55;;;;;;;14.57;13.25;;;23.30;76.20;;;;;;21069345;28;20084;-19
2021/07/13 21:05:55;;;;;;;14.73;13.23;;;23.30;76.30;;;;;;21071686;28;20037;-19
2021/07/13 21:15:56;;;;;;;19.27;13.63;;;23.30;76.10;;;;;;21067869;28;20071;-19
2021/07/13 21:25:56;;;;;;;14.70;13.20;;;23.20;76.50;;;;;;21072746;28;20020;-20
2021/07/13 21:35:57;;;;;;;14.43;13.10;;;23.20;76.30;;;;;;21072188;28;20031;-20
2021/07/13 21:45:58;;;;;;;14.02;12.73;;;23.30;76.40;;;;;;21071605;28;20066;-20
2021/07/13 21:55:58;;;;;;;13.68;12.35;;;23.30;76.00;;;;;;21042852;28;20043;-19
2021/07/13 22:05:59;;;;;;;14.40;13.20;;;23.20;75.80;;;;;;21069276;28;20020;-19
2021/07/13 22:16:00;;;;;;;15.10;13.55;;;23.20;75.90;;;;;;21068295;28;20397;-19
2021/07/13 22:26:00;;;;;;;14.23;12.83;;;23.20;75.80;;;;;;21080722;28;20100;-20
2021/07/13 22:36:01;;;;;;;14.43;13.10;;;23.10;75.80;;;;;;21084430;28;20474;-20
2021/07/13 22:46:02;;;;;;;13.82;12.43;;;23.20;75.70;;;;;;21020861;28;20028;-19
2021/07/13 22:56:03;;;;;;;13.63;12.50;;;23.10;75.60;;;;;;21021046;28;20031;-20
2021/07/13 23:06:03;;;;;;;16.42;15.02;;;23.20;75.70;;;;;;21019639;28;20541;-20
2021/07/13 23:16:06;;;;;;;14.20;12.75;;;23.20;75.60;;;;;;20998720;28;20060;-20
2021/07/13 23:26:07;;;;;;;17.00;15.23;;;23.20;75.90;;;;;;21003826;28;20173;-20
2021/07/13 23:36:08;;;;;;;17.17;15.52;;;23.20;76.10;;;;;;21005241;28;20082;-20
2021/07/13 23:46:08;;;;;;;15.68;14.23;;;23.20;76.50;;;;;;21003321;28;20028;-20
2021/07/13 23:56:09;;;;;;;15.65;14.05;;;23.20;76.30;;;;;;20998023;28;20093;-20
